createdAt,value
2022-08-17T00:00:34.298Z,454
2022-08-17T00:00:34.532Z,456
2022-08-17T00:00:42.579Z,455
2022-08-17T00:00:49.420Z,456
2022-08-17T00:00:52.021Z,457
2022-08-17T00:01:00.068Z,458
2022-08-17T00:01:10.069Z,457
2022-08-17T00:01:20.129Z,456
2022-08-17T00:01:31.471Z,455
2022-08-17T00:01:51.431Z,455
2022-08-17T00:01:52.136Z,455
2022-08-17T00:02:00.104Z,455
2022-08-17T00:02:21.208Z,455
2022-08-17T00:02:25.952Z,455
2022-08-17T00:02:30.157Z,456
2022-08-17T00:02:42.878Z,455
2022-08-17T00:02:50.323Z,456
2022-08-17T00:03:00.114Z,457
2022-08-17T00:03:10.393Z,457
2022-08-17T00:03:20.219Z,458
2022-08-17T00:03:30.154Z,457
2022-08-17T00:03:40.186Z,458
2022-08-17T00:03:50.220Z,457
2022-08-17T00:04:00.190Z,457
2022-08-17T00:04:11.827Z,457
2022-08-17T00:04:20.218Z,457
2022-08-17T00:04:30.230Z,458
2022-08-17T00:04:40.230Z,457
2022-08-17T00:04:50.758Z,458
2022-08-17T00:05:00.260Z,458
2022-08-17T00:05:10.265Z,456
2022-08-17T00:05:20.272Z,455
2022-08-17T00:05:30.301Z,455
2022-08-17T00:05:40.344Z,454
2022-08-17T00:05:50.344Z,454
2022-08-17T00:06:00.352Z,454
2022-08-17T00:06:10.339Z,453
2022-08-17T00:06:20.348Z,453
2022-08-17T00:06:30.356Z,454
2022-08-17T00:06:40.374Z,454
2022-08-17T00:06:50.385Z,452
2022-08-17T00:07:00.401Z,453
2022-08-17T00:07:10.418Z,453
2022-08-17T00:07:20.483Z,452
2022-08-17T00:07:30.438Z,451
2022-08-17T00:07:45.506Z,451
2022-08-17T00:07:50.694Z,451
2022-08-17T00:08:00.458Z,452
2022-08-17T00:08:10.483Z,451
2022-08-17T00:08:20.485Z,451
2022-08-17T00:08:30.523Z,453
2022-08-17T00:08:40.596Z,454
2022-08-17T00:08:50.528Z,454
2022-08-17T00:09:00.537Z,454
2022-08-17T00:09:10.555Z,454
2022-08-17T00:09:20.551Z,453
2022-08-17T00:09:30.563Z,454
2022-08-17T00:09:40.603Z,454
2022-08-17T00:09:50.744Z,455
2022-08-17T00:10:00.626Z,457
2022-08-17T00:10:10.634Z,458
2022-08-17T00:10:20.641Z,459
2022-08-17T00:10:32.266Z,459
2022-08-17T00:10:40.662Z,460
2022-08-17T00:10:50.713Z,461
2022-08-17T00:11:00.677Z,462
2022-08-17T00:11:10.682Z,462
2022-08-17T00:11:20.715Z,464
2022-08-17T00:11:30.752Z,461
2022-08-17T00:11:40.719Z,461
2022-08-17T00:12:34.744Z,460
2022-08-17T00:12:42.278Z,459
2022-08-17T00:12:43.031Z,465
2022-08-17T00:12:43.193Z,468
2022-08-17T00:12:43.236Z,465
2022-08-17T00:12:44.329Z,466
2022-08-17T00:12:50.819Z,465
2022-08-17T00:13:10.835Z,463
2022-08-17T00:13:20.837Z,465
2022-08-17T00:13:30.847Z,463
2022-08-17T00:13:40.935Z,465
2022-08-17T00:13:50.875Z,464
2022-08-17T00:14:00.884Z,464
2022-08-17T00:14:10.896Z,465
2022-08-17T00:14:20.899Z,463
2022-08-17T00:14:31.010Z,464
2022-08-17T00:14:40.926Z,462
2022-08-17T00:14:50.942Z,462
2022-08-17T00:15:00.955Z,461
2022-08-17T00:15:10.967Z,461
2022-08-17T00:15:20.978Z,460
2022-08-17T00:15:31.013Z,459
2022-08-17T00:15:41.004Z,459
2022-08-17T00:15:51.088Z,460
2022-08-17T00:16:01.032Z,460
2022-08-17T00:16:11.052Z,459
2022-08-17T00:16:21.060Z,458
2022-08-17T00:16:52.612Z,456
2022-08-17T00:16:55.348Z,457
2022-08-17T00:16:56.916Z,456
2022-08-17T00:17:01.133Z,457
2022-08-17T00:17:11.107Z,458
2022-08-17T00:17:21.124Z,458
2022-08-17T00:17:31.135Z,458
2022-08-17T00:17:41.151Z,460
2022-08-17T00:17:51.203Z,459
2022-08-17T00:18:01.170Z,458
2022-08-17T00:18:57.524Z,457
2022-08-17T00:18:58.228Z,457
2022-08-17T00:19:02.079Z,457
2022-08-17T00:19:02.080Z,458
2022-08-17T00:19:05.782Z,457
2022-08-17T00:19:07.396Z,457
2022-08-17T00:19:11.249Z,456
2022-08-17T00:19:21.261Z,456
2022-08-17T00:19:31.276Z,458
2022-08-17T00:19:41.390Z,460
2022-08-17T00:19:51.300Z,461
2022-08-17T00:20:01.314Z,462
2022-08-17T00:20:11.325Z,463
2022-08-17T00:20:23.404Z,463
2022-08-17T00:20:34.888Z,463
2022-08-17T00:20:41.362Z,463
2022-08-17T00:20:51.391Z,463
2022-08-17T00:21:01.399Z,461
2022-08-17T00:21:11.682Z,460
2022-08-17T00:21:25.356Z,460
2022-08-17T00:21:59.960Z,460
2022-08-17T00:22:31.938Z,458
2022-08-17T00:22:32.563Z,459
2022-08-17T00:22:32.988Z,459
2022-08-17T00:22:34.704Z,460
2022-08-17T00:22:35.151Z,459
2022-08-17T00:22:36.085Z,460
2022-08-17T00:22:41.502Z,461
2022-08-17T00:22:51.637Z,461
2022-08-17T00:23:01.515Z,461
2022-08-17T00:23:11.537Z,461
2022-08-17T00:23:21.570Z,461
2022-08-17T00:23:31.554Z,461
2022-08-17T00:23:44.354Z,461
2022-08-17T00:23:51.579Z,463
2022-08-17T00:24:01.766Z,464
2022-08-17T00:24:11.600Z,465
2022-08-17T00:24:21.617Z,463
2022-08-17T00:24:41.645Z,463
2022-08-17T00:24:51.643Z,464
2022-08-17T00:25:01.662Z,464
2022-08-17T00:25:11.687Z,463
2022-08-17T00:25:21.686Z,465
2022-08-17T00:25:31.731Z,463
2022-08-17T00:25:41.716Z,464
2022-08-17T00:25:51.729Z,465
2022-08-17T00:26:01.730Z,466
2022-08-17T00:26:11.837Z,467
2022-08-17T00:26:43.180Z,467
2022-08-17T00:26:44.576Z,467
2022-08-17T00:26:45.077Z,468
2022-08-17T00:26:51.800Z,467
2022-08-17T00:27:01.812Z,467
2022-08-17T00:27:11.814Z,466
2022-08-17T00:27:21.843Z,464
2022-08-17T00:27:31.864Z,465
2022-08-17T00:27:41.859Z,465
2022-08-17T00:27:51.909Z,465
2022-08-17T00:28:01.892Z,463
2022-08-17T00:28:11.888Z,462
2022-08-17T00:28:21.914Z,461
2022-08-17T00:28:33.255Z,460
2022-08-17T00:28:41.925Z,458
2022-08-17T00:28:51.958Z,460
2022-08-17T00:29:01.955Z,460
2022-08-17T00:29:19.546Z,459
2022-08-17T00:29:32.009Z,459
2022-08-17T00:29:52.112Z,457
2022-08-17T00:30:02.020Z,457
2022-08-17T00:30:12.030Z,456
2022-08-17T00:30:22.040Z,454
2022-08-17T00:30:51.104Z,456
2022-08-17T00:30:52.946Z,454
2022-08-17T00:30:53.306Z,455
2022-08-17T00:31:02.086Z,456
2022-08-17T00:31:12.103Z,456
2022-08-17T00:31:22.112Z,458
2022-08-17T00:31:32.170Z,457
2022-08-17T00:31:42.141Z,457
2022-08-17T00:31:52.147Z,458
2022-08-17T00:33:10.957Z,458
2022-08-17T00:33:11.986Z,458
2022-08-17T00:33:12.248Z,457
2022-08-17T00:33:13.920Z,459
2022-08-17T00:33:14.163Z,458
2022-08-17T00:33:14.715Z,457
2022-08-17T00:33:15.285Z,458
2022-08-17T00:33:22.314Z,460
2022-08-17T00:33:22.971Z,458
2022-08-17T00:33:32.272Z,459
2022-08-17T00:33:42.279Z,458
2022-08-17T00:33:52.293Z,458
2022-08-17T00:34:02.298Z,459
2022-08-17T00:34:12.317Z,459
2022-08-17T00:34:28.006Z,460
2022-08-17T00:34:32.356Z,459
2022-08-17T00:34:42.347Z,458
2022-08-17T00:34:52.439Z,459
2022-08-17T00:35:02.365Z,458
2022-08-17T00:35:12.379Z,456
2022-08-17T00:35:22.399Z,457
2022-08-17T00:35:32.407Z,457
2022-08-17T00:35:42.424Z,460
2022-08-17T00:35:52.485Z,459
2022-08-17T00:36:02.445Z,460
2022-08-17T00:36:12.457Z,461
2022-08-17T00:36:22.489Z,462
2022-08-17T00:36:32.478Z,461
2022-08-17T00:36:42.497Z,460
2022-08-17T00:36:52.498Z,460
2022-08-17T00:37:02.522Z,461
2022-08-17T00:37:12.530Z,462
2022-08-17T00:37:22.549Z,461
2022-08-17T00:37:32.558Z,460
2022-08-17T00:37:42.571Z,460
2022-08-17T00:37:52.694Z,461
2022-08-17T00:38:02.585Z,460
2022-08-17T00:38:12.615Z,460
2022-08-17T00:38:22.641Z,460
2022-08-17T00:38:32.634Z,460
2022-08-17T00:38:42.651Z,460
2022-08-17T00:38:52.665Z,460
2022-08-17T00:39:02.712Z,460
2022-08-17T00:39:12.681Z,461
2022-08-17T00:39:22.811Z,459
2022-08-17T00:39:32.822Z,458
2022-08-17T00:39:42.792Z,458
2022-08-17T00:39:52.805Z,459
2022-08-17T00:40:02.862Z,457
2022-08-17T00:40:12.821Z,455
2022-08-17T00:40:24.771Z,455
2022-08-17T00:40:44.274Z,454
2022-08-17T00:40:44.977Z,454
2022-08-17T00:40:55.971Z,454
2022-08-17T00:41:02.816Z,456
2022-08-17T00:41:12.830Z,457
2022-08-17T00:41:22.833Z,456
2022-08-17T00:41:32.846Z,456
2022-08-17T00:41:42.946Z,456
2022-08-17T00:41:52.863Z,455
2022-08-17T00:42:02.871Z,455
2022-08-17T00:42:12.896Z,456
2022-08-17T00:42:26.357Z,457
2022-08-17T00:42:32.904Z,456
2022-08-17T00:42:42.940Z,456
2022-08-17T00:42:52.934Z,456
2022-08-17T00:43:02.955Z,455
2022-08-17T00:43:12.965Z,455
2022-08-17T00:43:22.951Z,455
2022-08-17T00:43:33.114Z,457
2022-08-17T00:43:42.980Z,457
2022-08-17T00:43:52.987Z,457
2022-08-17T00:44:03.014Z,457
2022-08-17T00:44:13.103Z,457
2022-08-17T00:44:23.019Z,457
2022-08-17T00:44:33.109Z,457
2022-08-17T00:44:43.042Z,457
2022-08-17T00:44:53.171Z,457
2022-08-17T00:45:03.078Z,459
2022-08-17T00:45:13.085Z,458
2022-08-17T00:45:23.106Z,459
2022-08-17T00:45:33.260Z,459
2022-08-17T00:45:43.121Z,459
2022-08-17T00:45:53.155Z,459
2022-08-17T00:46:03.141Z,459
2022-08-17T00:46:13.165Z,458
2022-08-17T00:46:23.170Z,458
2022-08-17T00:46:38.190Z,456
2022-08-17T00:46:43.211Z,454
2022-08-17T00:46:53.211Z,453
2022-08-17T00:47:03.216Z,454
2022-08-17T00:47:13.234Z,455
2022-08-17T00:47:23.239Z,455
2022-08-17T00:47:33.383Z,456
2022-08-17T00:47:43.263Z,457
2022-08-17T00:47:53.288Z,457
2022-08-17T00:48:03.381Z,457
2022-08-17T00:48:29.134Z,457
2022-08-17T00:48:30.199Z,456
2022-08-17T00:48:33.386Z,455
2022-08-17T00:48:43.333Z,456
2022-08-17T00:48:53.360Z,456
2022-08-17T00:49:03.354Z,457
2022-08-17T00:49:13.378Z,457
2022-08-17T00:49:23.381Z,457
2022-08-17T00:49:33.526Z,458
2022-08-17T00:49:43.402Z,454
2022-08-17T00:49:53.431Z,456
2022-08-17T00:50:03.427Z,457
2022-08-17T00:50:13.435Z,458
2022-08-17T00:50:23.462Z,459
2022-08-17T00:50:33.550Z,458
2022-08-17T00:50:43.469Z,459
2022-08-17T00:50:53.492Z,458
2022-08-17T00:51:03.503Z,457
2022-08-17T00:51:13.515Z,456
2022-08-17T00:51:23.514Z,456
2022-08-17T00:51:33.683Z,456
2022-08-17T00:51:43.577Z,456
2022-08-17T00:51:53.572Z,456
2022-08-17T00:52:03.589Z,455
2022-08-17T00:52:13.585Z,454
2022-08-17T00:52:23.591Z,455
2022-08-17T00:52:33.707Z,454
2022-08-17T00:52:43.617Z,455
2022-08-17T00:52:53.728Z,455
2022-08-17T00:53:03.652Z,453
2022-08-17T00:53:13.724Z,452
2022-08-17T00:53:23.672Z,453
2022-08-17T00:53:33.725Z,453
2022-08-17T00:53:43.698Z,453
2022-08-17T00:53:53.805Z,453
2022-08-17T00:54:03.734Z,452
2022-08-17T00:54:13.732Z,454
2022-08-17T00:54:23.761Z,454
2022-08-17T00:54:33.836Z,455
2022-08-17T00:54:43.772Z,455
2022-08-17T00:54:53.780Z,455
2022-08-17T00:55:03.793Z,454
2022-08-17T00:55:13.876Z,454
2022-08-17T00:55:23.857Z,455
2022-08-17T00:55:33.914Z,456
2022-08-17T00:55:43.853Z,454
2022-08-17T00:55:53.846Z,455
2022-08-17T00:56:03.947Z,456
2022-08-17T00:56:13.879Z,458
2022-08-17T00:56:23.884Z,457
2022-08-17T00:56:33.917Z,456
2022-08-17T00:56:43.919Z,457
2022-08-17T00:56:53.934Z,457
2022-08-17T00:57:03.959Z,459
2022-08-17T00:57:13.969Z,456
2022-08-17T00:57:23.965Z,457
2022-08-17T00:57:33.992Z,458
2022-08-17T00:57:44.001Z,456
2022-08-17T00:57:55.594Z,456
2022-08-17T00:58:04.056Z,455
2022-08-17T00:58:14.031Z,456
2022-08-17T00:58:35.436Z,455
2022-08-17T00:58:36.586Z,454
2022-08-17T00:58:44.074Z,454
2022-08-17T00:58:54.142Z,456
2022-08-17T00:59:04.067Z,456
2022-08-17T00:59:14.117Z,456
2022-08-17T00:59:24.109Z,455
2022-08-17T00:59:34.096Z,455
2022-08-17T00:59:44.140Z,457
2022-08-17T01:00:02.368Z,456
2022-08-17T01:00:04.175Z,458
2022-08-17T01:00:14.245Z,459
2022-08-17T01:00:24.182Z,458
2022-08-17T01:00:34.190Z,457
2022-08-17T01:00:44.302Z,457
2022-08-17T01:00:54.297Z,456
2022-08-17T01:01:04.295Z,458
2022-08-17T01:01:21.343Z,459
2022-08-17T01:01:24.305Z,458
2022-08-17T01:01:34.306Z,459
2022-08-17T01:01:44.281Z,459
2022-08-17T01:01:54.282Z,459
2022-08-17T01:02:04.299Z,459
2022-08-17T01:02:14.311Z,461
2022-08-17T01:02:24.335Z,459
2022-08-17T01:02:42.783Z,459
2022-08-17T01:02:44.381Z,459
2022-08-17T01:02:54.550Z,459
2022-08-17T01:03:04.369Z,458
2022-08-17T01:03:14.400Z,461
2022-08-17T01:03:24.393Z,460
2022-08-17T01:03:34.400Z,459
2022-08-17T01:03:44.412Z,460
2022-08-17T01:03:55.578Z,460
2022-08-17T01:04:14.453Z,460
2022-08-17T01:04:24.459Z,459
2022-08-17T01:04:34.481Z,458
2022-08-17T01:04:44.490Z,455
2022-08-17T01:04:54.522Z,454
2022-08-17T01:05:04.516Z,458
2022-08-17T01:05:14.520Z,459
2022-08-17T01:05:25.427Z,460
2022-08-17T01:05:34.554Z,460
2022-08-17T01:05:44.578Z,458
2022-08-17T01:05:54.601Z,457
2022-08-17T01:06:04.609Z,457
2022-08-17T01:06:14.600Z,457
2022-08-17T01:06:24.606Z,458
2022-08-17T01:06:34.605Z,459
2022-08-17T01:06:44.634Z,457
2022-08-17T01:06:54.673Z,456
2022-08-17T01:07:04.665Z,459
2022-08-17T01:07:14.674Z,458
2022-08-17T01:07:24.743Z,456
2022-08-17T01:07:34.702Z,457
2022-08-17T01:07:44.694Z,457
2022-08-17T01:07:54.732Z,456
2022-08-17T01:08:04.737Z,456
2022-08-17T01:08:14.741Z,453
2022-08-17T01:08:24.765Z,451
2022-08-17T01:08:34.766Z,450
2022-08-17T01:08:44.779Z,452
2022-08-17T01:08:57.569Z,452
2022-08-17T01:09:04.809Z,452
2022-08-17T01:09:14.818Z,451
2022-08-17T01:09:24.843Z,450
2022-08-17T01:09:34.825Z,451
2022-08-17T01:09:44.894Z,453
2022-08-17T01:09:54.863Z,454
2022-08-17T01:10:04.880Z,454
2022-08-17T01:10:58.227Z,455
2022-08-17T01:10:58.922Z,454
2022-08-17T01:10:59.359Z,458
2022-08-17T01:10:59.416Z,454
2022-08-17T01:10:59.609Z,456
2022-08-17T01:11:04.960Z,454
2022-08-17T01:11:14.939Z,454
2022-08-17T01:11:24.977Z,455
2022-08-17T01:11:34.973Z,456
2022-08-17T01:11:44.969Z,458
2022-08-17T01:11:54.996Z,458
2022-08-17T01:12:04.995Z,456
2022-08-17T01:12:15.009Z,456
2022-08-17T01:12:25.010Z,455
2022-08-17T01:12:35.031Z,456
2022-08-17T01:12:45.034Z,455
2022-08-17T01:12:55.050Z,455
2022-08-17T01:13:05.058Z,455
2022-08-17T01:13:15.073Z,456
2022-08-17T01:13:25.081Z,454
2022-08-17T01:13:40.344Z,454
2022-08-17T01:13:45.098Z,452
2022-08-17T01:13:55.114Z,453
2022-08-17T01:14:05.118Z,453
2022-08-17T01:14:15.132Z,452
2022-08-17T01:14:25.149Z,452
2022-08-17T01:14:35.151Z,454
2022-08-17T01:14:45.172Z,454
2022-08-17T01:14:55.181Z,455
2022-08-17T01:15:05.187Z,455
2022-08-17T01:15:15.203Z,454
2022-08-17T01:15:25.220Z,455
2022-08-17T01:15:35.228Z,454
2022-08-17T01:15:55.250Z,456
2022-08-17T01:16:05.256Z,456
2022-08-17T01:16:15.279Z,455
2022-08-17T01:16:25.370Z,454
2022-08-17T01:16:35.345Z,452
2022-08-17T01:16:45.326Z,453
2022-08-17T01:16:55.324Z,452
2022-08-17T01:17:05.373Z,453
2022-08-17T01:17:15.357Z,451
2022-08-17T01:17:25.382Z,451
2022-08-17T01:17:35.359Z,453
2022-08-17T01:17:45.450Z,454
2022-08-17T01:17:55.409Z,454
2022-08-17T01:18:05.422Z,455
2022-08-17T01:18:15.418Z,455
2022-08-17T01:18:25.441Z,455
2022-08-17T01:18:35.434Z,455
2022-08-17T01:18:45.460Z,456
2022-08-17T01:18:55.470Z,456
2022-08-17T01:19:05.498Z,456
2022-08-17T01:19:15.493Z,454
2022-08-17T01:19:25.513Z,453
2022-08-17T01:19:35.513Z,454
2022-08-17T01:19:45.574Z,455
2022-08-17T01:19:55.556Z,455
2022-08-17T01:20:05.553Z,455
2022-08-17T01:20:15.563Z,455
2022-08-17T01:20:25.575Z,456
2022-08-17T01:20:48.023Z,456
2022-08-17T01:20:48.199Z,454
2022-08-17T01:20:55.749Z,455
2022-08-17T01:21:05.628Z,456
2022-08-17T01:21:15.634Z,456
2022-08-17T01:21:25.647Z,455
2022-08-17T01:21:35.654Z,453
2022-08-17T01:21:45.665Z,453
2022-08-17T01:21:55.700Z,454
2022-08-17T01:22:05.702Z,455
2022-08-17T01:22:15.695Z,455
2022-08-17T01:22:25.706Z,456
2022-08-17T01:22:35.705Z,455
2022-08-17T01:22:45.808Z,454
2022-08-17T01:22:55.761Z,454
2022-08-17T01:23:05.755Z,453
2022-08-17T01:23:18.527Z,453
2022-08-17T01:23:25.766Z,453
2022-08-17T01:23:35.770Z,452
2022-08-17T01:23:45.897Z,452
2022-08-17T01:23:55.801Z,454
2022-08-17T01:24:05.816Z,454
2022-08-17T01:24:15.830Z,455
2022-08-17T01:24:25.846Z,457
2022-08-17T01:24:35.841Z,457
2022-08-17T01:24:45.870Z,458
2022-08-17T01:24:55.939Z,459
2022-08-17T01:25:05.894Z,458
2022-08-17T01:25:15.904Z,459
2022-08-17T01:25:25.913Z,459
2022-08-17T01:25:35.921Z,458
2022-08-17T01:25:45.943Z,458
2022-08-17T01:25:55.949Z,458
2022-08-17T01:26:06.030Z,458
2022-08-17T01:26:15.971Z,459
2022-08-17T01:26:25.987Z,459
2022-08-17T01:26:35.985Z,459
2022-08-17T01:26:46.007Z,458
2022-08-17T01:26:56.670Z,458
2022-08-17T01:27:10.491Z,459
2022-08-17T01:27:16.039Z,459
2022-08-17T01:27:26.077Z,461
2022-08-17T01:27:36.052Z,459
2022-08-17T01:27:46.077Z,458
2022-08-17T01:27:56.114Z,459
2022-08-17T01:28:06.195Z,457
2022-08-17T01:28:52.750Z,456
2022-08-17T01:28:53.246Z,456
2022-08-17T01:28:53.549Z,456
2022-08-17T01:28:54.602Z,455
2022-08-17T01:28:56.145Z,454
2022-08-17T01:29:06.177Z,454
2022-08-17T01:29:16.179Z,454
2022-08-17T01:29:26.189Z,453
2022-08-17T01:29:36.205Z,452
2022-08-17T01:29:46.210Z,453
2022-08-17T01:29:56.235Z,453
2022-08-17T01:30:06.245Z,452
2022-08-17T01:30:56.910Z,452
2022-08-17T01:30:57.791Z,452
2022-08-17T01:30:58.760Z,452
2022-08-17T01:30:58.856Z,454
2022-08-17T01:30:58.930Z,453
2022-08-17T01:31:06.310Z,455
2022-08-17T01:31:16.336Z,456
2022-08-17T01:31:26.333Z,456
2022-08-17T01:31:36.427Z,455
2022-08-17T01:31:46.367Z,454
2022-08-17T01:31:56.372Z,453
2022-08-17T01:32:06.408Z,455
2022-08-17T01:32:16.399Z,452
2022-08-17T01:32:26.409Z,452
2022-08-17T01:32:36.409Z,453
2022-08-17T01:32:46.543Z,453
2022-08-17T01:32:56.482Z,454
2022-08-17T01:33:06.464Z,455
2022-08-17T01:33:16.480Z,454
2022-08-17T01:33:26.486Z,455
2022-08-17T01:33:36.544Z,456
2022-08-17T01:33:46.512Z,456
2022-08-17T01:33:56.526Z,456
2022-08-17T01:34:06.590Z,454
2022-08-17T01:34:16.562Z,453
2022-08-17T01:34:31.583Z,453
2022-08-17T01:34:43.497Z,453
2022-08-17T01:34:50.237Z,452
2022-08-17T01:34:56.584Z,454
2022-08-17T01:35:06.600Z,454
2022-08-17T01:35:16.614Z,454
2022-08-17T01:35:26.626Z,453
2022-08-17T01:35:36.621Z,454
2022-08-17T01:35:46.654Z,454
2022-08-17T01:35:56.696Z,455
2022-08-17T01:36:06.669Z,454
2022-08-17T01:36:16.685Z,455
2022-08-17T01:36:26.695Z,454
2022-08-17T01:36:36.700Z,454
2022-08-17T01:36:46.730Z,453
2022-08-17T01:36:56.774Z,453
2022-08-17T01:37:06.750Z,453
2022-08-17T01:37:16.809Z,454
2022-08-17T01:37:36.777Z,455
2022-08-17T01:37:46.811Z,458
2022-08-17T01:37:56.821Z,461
2022-08-17T01:38:06.820Z,462
2022-08-17T01:38:16.844Z,462
2022-08-17T01:38:27.324Z,463
2022-08-17T01:38:36.863Z,463
2022-08-17T01:38:46.867Z,461
2022-08-17T01:38:56.882Z,462
2022-08-17T01:39:06.889Z,463
2022-08-17T01:39:16.900Z,458
2022-08-17T01:39:27.033Z,459
2022-08-17T01:39:37.030Z,457
2022-08-17T01:39:47.016Z,456
2022-08-17T01:39:57.009Z,457
2022-08-17T01:40:07.045Z,457
2022-08-17T01:40:16.976Z,456
2022-08-17T01:40:26.992Z,456
2022-08-17T01:40:36.991Z,455
2022-08-17T01:40:47.046Z,456
2022-08-17T01:40:57.530Z,458
2022-08-17T01:41:07.041Z,459
2022-08-17T01:41:17.044Z,458
2022-08-17T01:41:27.050Z,460
2022-08-17T01:41:37.068Z,460
2022-08-17T01:41:47.084Z,462
2022-08-17T01:41:57.098Z,461
2022-08-17T01:42:07.115Z,463
2022-08-17T01:42:17.125Z,464
2022-08-17T01:42:27.125Z,463
2022-08-17T01:42:37.149Z,463
2022-08-17T01:42:47.155Z,463
2022-08-17T01:42:57.200Z,465
2022-08-17T01:43:07.180Z,464
2022-08-17T01:43:17.196Z,464
2022-08-17T01:43:27.200Z,463
2022-08-17T01:43:37.207Z,463
2022-08-17T01:43:47.234Z,462
2022-08-17T01:43:57.251Z,461
2022-08-17T01:44:07.261Z,461
2022-08-17T01:44:17.273Z,463
2022-08-17T01:44:27.277Z,460
2022-08-17T01:44:37.283Z,461
2022-08-17T01:44:47.297Z,462
2022-08-17T01:44:57.314Z,461
2022-08-17T01:45:07.321Z,459
2022-08-17T01:45:17.346Z,460
2022-08-17T01:45:27.348Z,460
2022-08-17T01:45:37.358Z,459
2022-08-17T01:45:47.480Z,459
2022-08-17T01:46:03.254Z,460
2022-08-17T01:46:07.472Z,459
2022-08-17T01:46:17.417Z,458
2022-08-17T01:46:27.419Z,458
2022-08-17T01:46:37.432Z,457
2022-08-17T01:46:47.445Z,458
2022-08-17T01:46:57.461Z,458
2022-08-17T01:47:07.469Z,458
2022-08-17T01:47:17.492Z,459
2022-08-17T01:47:27.500Z,461
2022-08-17T01:47:37.491Z,461
2022-08-17T01:47:47.503Z,462
2022-08-17T01:47:57.530Z,462
2022-08-17T01:48:07.591Z,462
2022-08-17T01:48:17.601Z,463
2022-08-17T01:48:27.574Z,462
2022-08-17T01:48:37.577Z,463
2022-08-17T01:48:47.734Z,463
2022-08-17T01:48:57.723Z,462
2022-08-17T01:49:07.602Z,462
2022-08-17T01:49:17.613Z,463
2022-08-17T01:49:27.632Z,463
2022-08-17T01:49:37.620Z,465
2022-08-17T01:49:47.714Z,464
2022-08-17T01:49:57.649Z,464
2022-08-17T01:50:07.657Z,464
2022-08-17T01:50:17.687Z,463
2022-08-17T01:50:27.697Z,464
2022-08-17T01:50:37.699Z,464
2022-08-17T01:50:47.781Z,466
2022-08-17T01:50:57.728Z,465
2022-08-17T01:51:07.735Z,465
2022-08-17T01:51:17.751Z,464
2022-08-17T01:51:27.759Z,464
2022-08-17T01:51:37.794Z,463
2022-08-17T01:51:47.799Z,463
2022-08-17T01:51:57.809Z,463
2022-08-17T01:52:07.816Z,463
2022-08-17T01:52:17.835Z,462
2022-08-17T01:52:27.836Z,461
2022-08-17T01:52:37.884Z,461
2022-08-17T01:52:47.861Z,461
2022-08-17T01:52:57.914Z,461
2022-08-17T01:53:07.883Z,462
2022-08-17T01:53:17.895Z,462
2022-08-17T01:53:27.918Z,464
2022-08-17T01:53:37.915Z,465
2022-08-17T01:53:47.954Z,465
2022-08-17T01:53:57.949Z,463
2022-08-17T01:54:07.959Z,464
2022-08-17T01:54:17.970Z,464
2022-08-17T01:54:27.986Z,465
2022-08-17T01:54:38.029Z,464
2022-08-17T01:54:48.028Z,465
2022-08-17T01:54:58.025Z,464
2022-08-17T01:55:08.034Z,463
2022-08-17T01:55:18.041Z,465
2022-08-17T01:55:28.060Z,465
2022-08-17T01:55:38.072Z,465
2022-08-17T01:55:48.078Z,466
2022-08-17T01:55:58.103Z,464
2022-08-17T01:56:08.122Z,464
2022-08-17T01:56:18.146Z,465
2022-08-17T01:56:28.141Z,465
2022-08-17T01:56:38.140Z,466
2022-08-17T01:56:48.156Z,463
2022-08-17T01:56:58.173Z,463
2022-08-17T01:57:08.181Z,464
2022-08-17T01:57:18.290Z,464
2022-08-17T01:57:28.231Z,466
2022-08-17T01:57:38.213Z,464
2022-08-17T01:57:48.238Z,464
2022-08-17T01:57:58.270Z,464
2022-08-17T01:58:08.260Z,466
2022-08-17T01:58:18.389Z,466
2022-08-17T01:58:28.289Z,465
2022-08-17T01:58:38.301Z,465
2022-08-17T01:58:48.311Z,465
2022-08-17T01:58:58.327Z,465
2022-08-17T01:59:08.326Z,464
2022-08-17T01:59:18.347Z,465
2022-08-17T01:59:28.383Z,466
2022-08-17T01:59:38.383Z,465
2022-08-17T01:59:48.402Z,465
2022-08-17T01:59:58.400Z,465
2022-08-17T02:00:08.416Z,467
2022-08-17T02:00:18.438Z,467
2022-08-17T02:00:28.488Z,468
2022-08-17T02:00:46.860Z,466
2022-08-17T02:01:00.300Z,466
2022-08-17T02:01:00.501Z,467
2022-08-17T02:01:08.554Z,464
2022-08-17T02:01:18.702Z,465
2022-08-17T02:01:28.551Z,463
2022-08-17T02:01:38.808Z,463
2022-08-17T02:01:48.731Z,463
2022-08-17T02:01:58.578Z,463
2022-08-17T02:02:08.559Z,463
2022-08-17T02:02:30.822Z,464
2022-08-17T02:02:31.036Z,463
2022-08-17T02:02:38.593Z,465
2022-08-17T02:02:48.729Z,465
2022-08-17T02:02:58.638Z,464
2022-08-17T02:03:08.625Z,464
2022-08-17T02:03:18.630Z,464
2022-08-17T02:03:28.637Z,465
2022-08-17T02:03:38.702Z,465
2022-08-17T02:03:56.323Z,466
2022-08-17T02:03:59.754Z,466
2022-08-17T02:04:08.701Z,466
2022-08-17T02:04:18.701Z,467
2022-08-17T02:04:28.712Z,467
2022-08-17T02:04:38.745Z,468
2022-08-17T02:04:48.746Z,467
2022-08-17T02:04:58.747Z,467
2022-08-17T02:05:08.776Z,467
2022-08-17T02:05:18.784Z,467
2022-08-17T02:05:28.796Z,468
2022-08-17T02:05:38.920Z,468
2022-08-17T02:05:48.821Z,469
2022-08-17T02:05:58.887Z,469
2022-08-17T02:06:27.906Z,469
2022-08-17T02:06:28.047Z,469
2022-08-17T02:06:28.903Z,470
2022-08-17T02:06:45.119Z,469
2022-08-17T02:06:53.278Z,469
2022-08-17T02:06:58.902Z,469
2022-08-17T02:07:08.927Z,468
2022-08-17T02:07:18.927Z,470
2022-08-17T02:07:28.934Z,470
2022-08-17T02:07:59.640Z,469
2022-08-17T02:07:59.907Z,469
2022-08-17T02:08:00.376Z,470
2022-08-17T02:08:08.982Z,469
2022-08-17T02:08:20.175Z,470
2022-08-17T02:08:37.048Z,470
2022-08-17T02:09:01.801Z,470
2022-08-17T02:09:01.999Z,470
2022-08-17T02:09:03.296Z,469
2022-08-17T02:09:09.082Z,470
2022-08-17T02:09:29.742Z,471
2022-08-17T02:09:39.150Z,470
2022-08-17T02:09:51.158Z,470
2022-08-17T02:09:59.515Z,470
2022-08-17T02:10:20.111Z,470
2022-08-17T02:10:20.337Z,468
2022-08-17T02:10:33.941Z,468
2022-08-17T02:10:39.125Z,468
2022-08-17T02:10:49.133Z,469
2022-08-17T02:10:59.160Z,469
2022-08-17T02:11:11.493Z,469
2022-08-17T02:11:19.201Z,469
2022-08-17T02:11:29.230Z,468
2022-08-17T02:11:39.194Z,467
2022-08-17T02:11:49.203Z,466
2022-08-17T02:11:59.231Z,466
2022-08-17T02:12:37.862Z,468
2022-08-17T02:12:38.203Z,465
2022-08-17T02:12:38.497Z,468
2022-08-17T02:12:39.898Z,465
2022-08-17T02:12:49.488Z,468
2022-08-17T02:12:59.310Z,468
2022-08-17T02:13:09.302Z,468
2022-08-17T02:13:19.316Z,468
2022-08-17T02:13:29.317Z,469
2022-08-17T02:13:39.350Z,469
2022-08-17T02:13:49.351Z,469
2022-08-17T02:14:03.372Z,468
2022-08-17T02:14:09.353Z,469
2022-08-17T02:14:19.432Z,469
2022-08-17T02:14:29.385Z,468
2022-08-17T02:14:39.393Z,469
2022-08-17T02:14:49.399Z,469
2022-08-17T02:14:59.426Z,468
2022-08-17T02:15:09.430Z,467
2022-08-17T02:15:19.442Z,466
2022-08-17T02:15:29.464Z,464
2022-08-17T02:15:39.462Z,464
2022-08-17T02:15:49.482Z,464
2022-08-17T02:15:59.494Z,465
2022-08-17T02:16:09.501Z,463
2022-08-17T02:16:19.510Z,462
2022-08-17T02:16:29.536Z,461
2022-08-17T02:16:39.533Z,462
2022-08-17T02:16:49.554Z,462
2022-08-17T02:16:59.668Z,462
2022-08-17T02:17:09.573Z,461
2022-08-17T02:17:19.575Z,458
2022-08-17T02:17:29.602Z,457
2022-08-17T02:17:39.703Z,457
2022-08-17T02:17:49.613Z,457
2022-08-17T02:17:59.643Z,459
2022-08-17T02:18:09.708Z,459
2022-08-17T02:18:19.659Z,461
2022-08-17T02:18:29.659Z,460
2022-08-17T02:18:39.680Z,461
2022-08-17T02:18:49.686Z,461
2022-08-17T02:18:59.698Z,460
2022-08-17T02:19:09.714Z,460
2022-08-17T02:19:19.727Z,462